Time;durP1;ratioP1;P1;durP2;ratioP2;P2;SDS_P1;SDS_P2;PMS_P1;PMS_P2;Temp;Humidity;BMP_temperature;BMP_pressure;BME280_temperature;BME280_humidity;BME280_pressure;Samples;Min_cycle;Max_cycle;Signal;HPM_P1;HPM_P2
2023/03/18 00:01:12;;;;;;;1.63;1.42;;;;;;;11.65;63.21;100125.53;5080809;28;20356;-81
2023/03/18 00:03:39;;;;;;;3.53;1.52;;;;;;;11.54;63.72;100123.16;5070156;28;20520;-76
2023/03/18 00:06:12;;;;;;;4.40;1.67;;;;;;;11.41;65.83;100124.31;5077438;28;20479;-82
2023/03/18 00:08:41;;;;;;;2.63;1.88;;;;;;;11.23;67.23;100117.69;5087507;28;20390;-77
2023/03/18 00:11:10;;;;;;;3.60;1.38;;;;;;;11.10;68.02;100117.06;5086033;28;20532;-77
2023/03/18 00:13:37;;;;;;;1.73;1.55;;;;;;;11.01;69.33;100128.59;5088842;28;20494;-78
2023/03/18 00:16:06;;;;;;;4.20;2.40;;;;;;;10.93;70.52;100120.88;5085566;28;20678;-76
2023/03/18 00:18:33;;;;;;;4.53;2.22;;;;;;;10.87;71.47;100121.00;5077444;28;20044;-80
2023/03/18 00:21:01;;;;;;;4.00;1.58;;;;;;;10.85;72.10;100120.16;5058701;28;20127;-78
2023/03/18 00:23:28;;;;;;;2.97;1.88;;;;;;;10.83;72.90;100119.31;5088478;28;20040;-77
2023/03/18 00:25:59;;;;;;;2.67;2.05;;;;;;;10.82;75.34;100125.47;5089941;28;20044;-77
2023/03/18 00:28:27;;;;;;;3.05;2.58;;;;;;;10.80;74.24;100127.25;5087159;28;20089;-78
2023/03/18 00:30:55;;;;;;;6.15;3.45;;;;;;;10.79;74.59;100127.28;5085971;28;20040;-75
2023/03/18 00:33:22;;;;;;;4.90;2.78;;;;;;;10.78;74.93;100128.16;5082596;28;20047;-75
2023/03/18 00:35:49;;;;;;;1.80;1.52;;;;;;;10.77;74.90;100127.31;5083971;28;20074;-77
2023/03/18 00:38:19;;;;;;;2.20;1.73;;;;;;;10.75;75.48;100127.34;5081674;28;20787;-77
2023/03/18 00:41:00;;;;;;;1.77;1.55;;;;;;;10.75;75.87;100140.44;5078419;28;20051;-76
2023/03/18 00:43:32;;;;;;;2.63;1.75;;;;;;;10.76;76.53;100133.44;5084970;28;20092;-76
2023/03/18 00:45:59;;;;;;;1.73;1.50;;;;;;;10.79;74.40;100137.75;5083172;28;20565;-77
2023/03/18 00:48:26;;;;;;;5.53;2.45;;;;;;;10.87;73.86;100146.31;5085688;28;20067;-76
2023/03/18 00:50:56;;;;;;;4.85;1.98;;;;;;;10.93;72.89;100147.06;5071845;28;20044;-79
2023/03/18 00:53:24;;;;;;;2.67;2.05;;;;;;;10.98;73.71;100161.84;5083520;28;20040;-78
2023/03/18 00:55:51;;;;;;;2.88;2.20;;;;;;;10.95;74.12;100156.66;5085983;28;20048;-83
2023/03/18 00:58:18;;;;;;;5.60;2.33;;;;;;;10.92;74.08;100153.22;5077900;28;20045;-79
2023/03/18 01:00:45;;;;;;;4.93;1.95;;;;;;;10.92;74.55;100165.44;5084173;28;20502;-77
2023/03/18 01:03:15;;;;;;;2.85;1.95;;;;;;;10.92;74.27;100166.31;5082915;28;20066;-77
2023/03/18 01:05:42;;;;;;;4.45;2.15;;;;;;;10.92;75.17;100160.19;5082948;28;20147;-76
2023/03/18 01:08:09;;;;;;;3.67;2.60;;;;;;;10.91;74.82;100166.31;5079435;28;20063;-77
2023/03/18 01:10:35;;;;;;;3.75;2.22;;;;;;;10.92;73.88;100165.44;5084942;28;20123;-76
2023/03/18 01:13:02;;;;;;;2.92;2.00;;;;;;;10.95;74.38;100160.16;5076958;28;20044;-77
2023/03/18 01:15:29;;;;;;;4.05;1.92;;;;;;;10.99;73.25;100163.56;5084636;28;20052;-77
2023/03/18 01:17:57;;;;;;;4.75;1.80;;;;;;;11.01;72.24;100161.78;5067031;28;20071;-75
2023/03/18 01:20:24;;;;;;;2.47;2.10;;;;;;;11.05;72.56;100158.22;5079873;28;20045;-76
2023/03/18 01:22:51;;;;;;;4.18;3.08;;;;;;;11.04;72.17;100153.84;5085175;28;20037;-76
2023/03/18 01:25:17;;;;;;;4.90;2.30;;;;;;;11.04;72.34;100146.00;5086916;28;20531;-79
2023/03/18 01:27:46;;;;;;;3.50;1.92;;;;;;;11.04;72.78;100143.38;5087943;28;20056;-76
2023/03/18 01:30:14;;;;;;;4.18;1.35;;;;;;;11.03;72.83;100158.25;5071591;28;20071;-77
2023/03/18 01:32:42;;;;;;;3.45;2.13;;;;;;;11.02;72.69;100160.91;5082473;28;20063;-81
2023/03/18 01:35:11;;;;;;;2.90;1.83;;;;;;;11.01;73.46;100164.41;5083903;28;20423;-77
2023/03/18 01:37:38;;;;;;;2.67;2.47;;;;;;;11.00;74.33;100158.31;5084958;28;20029;-83
2023/03/18 01:40:07;;;;;;;3.58;2.78;;;;;;;11.01;73.21;100156.53;5081455;28;20050;-76
2023/03/18 01:42:34;;;;;;;4.20;2.53;;;;;;;11.06;73.07;100162.56;5078750;28;20041;-76
2023/03/18 01:45:20;;;;;;;5.90;2.25;;;;;;;11.16;73.07;100155.38;5065672;28;20059;-78
2023/03/18 01:47:48;;;;;;;8.70;2.80;;;;;;;11.18;73.63;100156.22;5078231;28;20127;-78
2023/03/18 01:50:42;;;;;;;7.43;3.22;;;;;;;11.16;73.78;100161.50;5080285;28;20040;-77
2023/03/18 01:53:15;;;;;;;3.50;2.05;;;;;;;11.06;75.32;100160.78;5074474;28;20051;-78
2023/03/18 01:55:45;;;;;;;5.72;2.47;;;;;;;10.95;76.52;100148.78;5082364;28;20483;-78
2023/03/18 01:58:35;;;;;;;1.58;1.48;;;;;;;10.89;77.41;100150.63;5080850;28;20446;-76
2023/03/18 02:01:10;;;;;;;4.88;2.42;;;;;;;10.84;78.35;100147.22;5081457;28;20090;-75
2023/03/18 02:03:39;;;;;;;2.63;2.33;;;;;;;10.80;79.36;100150.81;5077243;28;20033;-78
2023/03/18 02:06:05;;;;;;;3.33;2.30;;;;;;;10.80;80.08;100147.34;5092665;28;20052;-84
2023/03/18 02:08:32;;;;;;;4.00;2.97;;;;;;;10.84;81.58;100142.00;5082040;28;20040;-77
2023/03/18 02:10:59;;;;;;;6.07;3.13;;;;;;;10.92;83.14;100147.97;5066674;28;20045;-76
2023/03/18 02:13:26;;;;;;;5.68;3.58;;;;;;;10.94;83.92;100142.72;5070554;28;20138;-76
2023/03/18 02:16:02;;;;;;;6.63;3.75;;;;;;;11.00;86.68;100144.34;5074873;28;20044;-76
2023/03/18 02:18:38;;;;;;;7.05;4.70;;;;;;;11.07;87.87;100148.59;5070872;28;20048;-80
2023/03/18 02:21:27;;;;;;;8.98;4.72;;;;;;;11.09;89.84;100159.88;5087410;28;20059;-77
2023/03/18 02:24:33;;;;;;;7.03;4.38;;;;;;;10.98;90.81;100152.22;5090687;28;20052;-78
2023/03/18 02:27:35;;;;;;;11.60;4.35;;;;;;;10.88;92.06;100158.53;5082828;28;20051;-77
2023/03/18 02:30:13;;;;;;;6.32;4.03;;;;;;;10.78;94.63;100160.47;5041345;28;20066;-77
2023/03/18 02:32:41;;;;;;;9.57;3.72;;;;;;;10.71;96.16;100153.59;5079788;28;20113;-82
2023/03/18 02:35:12;;;;;;;7.95;4.63;;;;;;;10.65;98.44;100153.69;5067341;28;20092;-77
2023/03/18 02:37:39;;;;;;;6.13;4.85;;;;;;;10.60;99.65;100159.03;5084408;28;20047;-79
2023/03/18 02:40:20;;;;;;;7.30;4.78;;;;;;;10.55;100.00;100153.00;5077319;28;20124;-77
2023/03/18 02:42:48;;;;;;;5.72;4.57;;;;;;;10.52;100.00;100158.25;5080006;28;20549;-77
2023/03/18 02:45:45;;;;;;;8.90;5.85;;;;;;;10.50;100.00;100162.69;5069758;28;20119;-75
2023/03/18 02:48:17;;;;;;;10.57;4.55;;;;;;;10.44;100.00;100166.25;5082105;28;20032;-76
2023/03/18 02:50:44;;;;;;;8.77;4.80;;;;;;;10.38;100.00;100172.44;5081363;28;20048;-76
2023/03/18 02:53:13;;;;;;;16.13;5.18;;;;;;;10.33;100.00;100176.84;5088191;28;20136;-76
2023/03/18 02:55:42;;;;;;;8.93;6.22;;;;;;;10.26;100.00;100175.25;5086100;28;20048;-76
2023/03/18 02:58:09;;;;;;;8.45;5.47;;;;;;;10.20;100.00;100178.78;5087043;28;20043;-76
2023/03/18 03:00:36;;;;;;;8.88;4.97;;;;;;;10.12;100.00;100185.00;5087319;28;20048;-76
2023/03/18 03:03:04;;;;;;;12.18;5.70;;;;;;;10.04;100.00;100172.94;5083747;28;20044;-76
2023/03/18 03:05:31;;;;;;;10.02;6.45;;;;;;;10.02;100.00;100185.16;5056302;28;20131;-76
2023/03/18 03:07:58;;;;;;;9.10;5.53;;;;;;;10.01;100.00;100185.19;5069225;28;20047;-76
2023/03/18 03:10:29;;;;;;;11.63;5.85;;;;;;;9.97;100.00;100189.56;5087629;28;20040;-76
2023/03/18 03:12:56;;;;;;;15.38;6.57;;;;;;;9.93;100.00;100185.28;5089500;28;20032;-75
2023/03/18 03:15:23;;;;;;;10.85;6.20;;;;;;;9.90;100.00;100188.81;5082912;28;20101;-78
2023/03/18 03:17:49;;;;;;;10.63;6.93;;;;;;;9.86;100.00;100183.66;5096562;28;20043;-77
2023/03/18 03:20:17;;;;;;;15.82;7.28;;;;;;;9.83;100.00;100189.78;5072201;28;20048;-77
2023/03/18 03:22:44;;;;;;;8.05;6.18;;;;;;;9.85;100.00;100195.00;5080180;28;20041;-76
2023/03/18 03:25:12;;;;;;;11.27;7.10;;;;;;;9.85;100.00;100198.47;5083562;28;20049;-77
2023/03/18 03:27:38;;;;;;;10.50;5.45;;;;;;;9.82;100.00;100193.28;5087305;28;20036;-76
2023/03/18 03:30:08;;;;;;;10.40;6.63;;;;;;;9.82;100.00;100206.34;5080423;28;20048;-76
2023/03/18 03:32:35;;;;;;;9.88;6.13;;;;;;;9.80;100.00;100202.88;5080365;28;20076;-79
2023/03/18 03:35:02;;;;;;;9.25;6.38;;;;;;;9.78;100.00;100212.50;5064309;28;20352;-76
2023/03/18 03:37:29;;;;;;;11.27;6.03;;;;;;;9.75;100.00;100208.19;5084436;28;20488;-78
2023/03/18 03:39:55;;;;;;;10.95;6.28;;;;;;;9.71;100.00;100211.72;5087080;28;20043;-77
2023/03/18 03:42:22;;;;;;;9.20;6.65;;;;;;;9.67;100.00;100199.56;5082695;28;20036;-76
2023/03/18 03:44:48;;;;;;;8.02;6.10;;;;;;;9.63;100.00;100197.88;5083051;28;20040;-79
2023/03/18 03:47:15;;;;;;;13.95;5.38;;;;;;;9.60;100.00;100208.38;5079665;28;20076;-77
2023/03/18 03:49:42;;;;;;;9.68;6.22;;;;;;;9.59;100.00;100201.41;5087299;28;20040;-77
2023/03/18 03:52:08;;;;;;;7.72;6.20;;;;;;;9.58;100.00;100200.56;5081814;28;20071;-78
2023/03/18 03:54:35;;;;;;;12.88;6.47;;;;;;;9.55;100.00;100202.34;5067976;28;20382;-79
2023/03/18 03:57:01;;;;;;;12.55;6.22;;;;;;;9.53;100.00;100194.53;5080618;28;20040;-77
2023/03/18 03:59:28;;;;;;;7.63;5.97;;;;;;;9.52;100.00;100197.16;5082942;28;20036;-77
2023/03/18 04:01:54;;;;;;;10.68;6.13;;;;;;;9.50;100.00;100210.22;5085156;28;20056;-76
2023/03/18 04:04:21;;;;;;;9.15;6.28;;;;;;;9.49;100.00;100213.72;5082295;28;20035;-76
2023/03/18 04:06:47;;;;;;;9.00;6.68;;;;;;;9.45;100.00;100206.78;5081251;28;20055;-76
2023/03/18 04:09:14;;;;;;;13.57;6.07;;;;;;;9.44;100.00;100215.53;5080756;28;20037;-77
2023/03/18 04:11:41;;;;;;;12.48;7.15;;;;;;;9.44;100.00;100215.53;5084657;28;20044;-77
2023/03/18 04:14:08;;;;;;;13.93;7.57;;;;;;;9.42;100.00;100212.91;5080226;28;20041;-76
2023/03/18 04:16:34;;;;;;;12.70;8.30;;;;;;;9.39;100.00;100207.72;5072986;28;20066;-86
2023/03/18 04:19:01;;;;;;;16.70;7.43;;;;;;;9.36;100.00;100205.16;5091101;28;20105;-80
2023/03/18 04:21:27;;;;;;;9.93;6.97;;;;;;;9.35;100.00;100205.19;5095965;28;20054;-76
2023/03/18 04:23:54;;;;;;;13.00;7.60;;;;;;;9.34;100.00;100208.69;5081203;28;20048;-77
2023/03/18 04:26:20;;;;;;;12.73;8.27;;;;;;;9.36;100.00;100204.28;5087549;28;20122;-77
2023/03/18 04:28:47;;;;;;;14.40;7.43;;;;;;;9.35;100.00;100205.19;5081734;28;20036;-76
2023/03/18 04:31:14;;;;;;;15.73;8.00;;;;;;;9.40;100.00;100213.84;5079328;28;20049;-75
2023/03/18 04:33:40;;;;;;;11.18;7.28;;;;;;;9.41;100.00;100215.56;5066303;28;20060;-80
2023/03/18 04:36:08;;;;;;;10.07;7.00;;;;;;;9.39;100.00;100218.19;5080074;28;20115;-77
2023/03/18 04:38:34;;;;;;;13.15;7.35;;;;;;;9.36;100.00;100218.22;5085002;28;20492;-77
2023/03/18 04:41:01;;;;;;;12.38;7.38;;;;;;;9.36;100.00;100222.56;5081611;28;20491;-79
2023/03/18 04:43:27;;;;;;;15.38;8.13;;;;;;;9.37;100.00;100216.47;5063546;28;20076;-78
2023/03/18 04:45:54;;;;;;;13.73;7.93;;;;;;;9.36;100.00;100225.19;5065311;28;20040;-76
2023/03/18 04:48:20;;;;;;;15.98;7.65;;;;;;;9.35;100.00;100221.72;5063184;28;20059;-75
2023/03/18 04:50:47;;;;;;;10.48;7.55;;;;;;;9.27;100.00;100221.81;5081086;28;20051;-75
2023/03/18 04:53:13;;;;;;;11.82;7.30;;;;;;;9.21;100.00;100224.47;5082030;28;20036;-78
2023/03/18 04:55:40;;;;;;;10.75;6.75;;;;;;;9.14;100.00;100214.97;5080413;28;20044;-77
2023/03/18 04:58:06;;;;;;;15.48;6.80;;;;;;;9.05;100.00;100218.53;5085244;28;20049;-76
2023/03/18 05:00:35;;;;;;;13.95;6.72;;;;;;;8.94;100.00;100216.03;5063490;28;20055;-76
2023/03/18 05:03:03;;;;;;;12.68;7.22;;;;;;;8.83;100.00;100219.63;5082297;28;20049;-75
2023/03/18 05:05:30;;;;;;;16.60;6.45;;;;;;;8.72;100.00;100220.59;5082913;28;20304;-76
2023/03/18 05:07:57;;;;;;;6.65;6.05;;;;;;;8.64;100.00;100222.38;5080898;28;20082;-76
2023/03/18 05:10:23;;;;;;;9.57;5.90;;;;;;;8.56;100.00;100229.41;5084414;28;20045;-75
2023/03/18 05:12:51;;;;;;;9.65;5.43;;;;;;;8.48;100.00;100226.84;5082083;28;20051;-76
2023/03/18 05:15:18;;;;;;;10.88;6.53;;;;;;;8.47;100.00;100221.66;5097588;28;20032;-75
2023/03/18 05:17:44;;;;;;;12.90;5.80;;;;;;;8.41;100.00;100217.31;5098800;28;20070;-76
2023/03/18 05:20:12;;;;;;;9.80;6.03;;;;;;;8.37;100.00;100219.06;5089485;28;20059;-75
2023/03/18 05:22:39;;;;;;;15.75;7.57;;;;;;;8.31;100.00;100226.94;5088726;28;20064;-76
2023/03/18 05:25:07;;;;;;;8.13;6.25;;;;;;;8.25;100.00;100230.44;5067144;28;20052;-83
2023/03/18 05:27:33;;;;;;;9.70;7.15;;;;;;;8.21;100.00;100225.25;5076829;28;20086;-77
2023/03/18 05:30:00;;;;;;;8.15;5.47;;;;;;;8.22;100.00;100233.06;5085445;28;20073;-78
2023/03/18 05:32:27;;;;;;;7.60;5.45;;;;;;;8.27;100.00;100231.28;5088027;28;20049;-77
2023/03/18 05:34:53;;;;;;;10.10;5.93;;;;;;;8.36;100.00;100229.53;5087119;28;20482;-78
2023/03/18 05:37:20;;;;;;;8.02;5.38;;;;;;;8.45;100.00;100229.47;5077886;28;20426;-76
2023/03/18 05:39:47;;;;;;;9.23;5.80;;;;;;;8.51;100.00;100239.84;5072100;28;20075;-76
2023/03/18 05:42:14;;;;;;;9.07;5.65;;;;;;;8.57;100.00;100233.75;5084633;28;20066;-75
2023/03/18 05:44:41;;;;;;;7.88;6.38;;;;;;;8.63;100.00;100240.66;5083759;28;20135;-76
2023/03/18 05:47:08;;;;;;;11.50;6.10;;;;;;;8.67;100.00;100247.56;5089034;28;20605;-81
2023/03/18 05:49:36;;;;;;;10.73;5.53;;;;;;;8.72;100.00;100251.00;5087880;28;20617;-77
2023/03/18 05:52:03;;;;;;;8.60;5.57;;;;;;;8.73;100.00;100253.59;5089858;28;20478;-76
2023/03/18 05:54:29;;;;;;;10.50;5.28;;;;;;;8.70;100.00;100247.56;5091925;28;20566;-81
2023/03/18 05:56:56;;;;;;;9.23;4.88;;;;;;;8.63;100.00;100238.94;5086236;28;20067;-76
2023/03/18 05:59:24;;;;;;;9.80;5.75;;;;;;;8.55;100.00;100252.03;5085458;28;20947;-76
2023/03/18 06:01:52;;;;;;;9.45;5.45;;;;;;;8.49;100.00;100253.81;5078662;28;20054;-75
2023/03/18 06:04:19;;;;;;;8.73;5.15;;;;;;;8.53;100.00;100263.34;5085981;28;20783;-77
2023/03/18 06:06:47;;;;;;;7.15;4.90;;;;;;;8.61;100.00;100259.78;5086827;28;20131;-79
2023/03/18 06:09:15;;;;;;;10.45;6.47;;;;;;;8.76;100.00;100255.31;5072612;28;20052;-76
2023/03/18 06:11:43;;;;;;;9.15;5.22;;;;;;;8.88;100.00;100255.25;5081325;28;20056;-76
2023/03/18 06:14:12;;;;;;;6.43;4.18;;;;;;;8.98;100.00;100258.63;5082657;28;20041;-76
2023/03/18 06:16:38;;;;;;;8.45;4.88;;;;;;;9.07;100.00;100258.56;5088628;28;20072;-76
2023/03/18 06:19:06;;;;;;;7.50;5.25;;;;;;;9.15;100.00;100258.50;5083374;28;20782;-83
2023/03/18 06:26:37;;;;;;;10.38;5.05;;;;;;;9.30;100.00;100244.41;5019383;28;20888;-79
2023/03/18 06:29:25;;;;;;;5.68;3.80;;;;;;;9.27;100.00;100247.06;5014944;28;20034;-79
2023/03/18 06:32:12;;;;;;;9.77;4.63;;;;;;;9.20;100.00;100251.47;5002059;28;20049;-82
2023/03/18 06:34:59;;;;;;;9.75;5.05;;;;;;;9.20;100.00;100259.28;5014886;28;20793;-81
2023/03/18 06:37:47;;;;;;;5.80;4.20;;;;;;;9.25;100.00;100254.03;5012874;28;20052;-82
2023/03/18 06:40:34;;;;;;;7.78;4.20;;;;;;;9.37;100.00;100280.06;5003981;28;20042;-79
2023/03/18 06:43:24;;;;;;;4.65;3.60;;;;;;;9.54;100.00;100274.66;5001338;28;20053;-83
2023/03/18 06:46:13;;;;;;;7.80;4.10;;;;;;;9.74;100.00;100279.63;5004328;28;20173;-84
2023/03/18 06:49:00;;;;;;;6.90;3.90;;;;;;;9.97;100.00;100281.09;5006251;28;20068;-77
2023/03/18 06:51:47;;;;;;;9.23;3.97;;;;;;;10.18;100.00;100281.72;5003942;28;20050;-80
2023/03/18 06:54:34;;;;;;;7.63;4.07;;;;;;;10.45;100.00;100290.97;5001560;28;20765;-80
2023/03/18 06:57:21;;;;;;;7.90;3.58;;;;;;;10.90;100.00;100293.78;5011558;28;20045;-77
2023/03/18 07:00:09;;;;;;;6.18;4.18;;;;;;;11.27;100.00;100302.78;5004473;28;20049;-78
2023/03/18 07:02:36;;;;;;;8.20;3.22;;;;;;;11.42;100.00;100302.50;5003793;28;20052;-76
2023/03/18 07:05:03;;;;;;;7.28;3.50;;;;;;;11.44;100.00;100304.25;5012736;28;20056;-80
2023/03/18 07:07:31;;;;;;;6.15;3.60;;;;;;;11.22;100.00;100302.88;5002285;28;20037;-77
2023/03/18 07:09:59;;;;;;;5.65;3.70;;;;;;;11.11;100.00;100304.81;5011492;28;20038;-77
2023/03/18 07:12:29;;;;;;;5.05;3.40;;;;;;;11.07;100.00;100301.34;5011814;28;20053;-77
2023/03/18 07:14:56;;;;;;;7.93;3.47;;;;;;;11.04;100.00;100306.66;5012338;28;20037;-76
2023/03/18 07:17:23;;;;;;;6.00;2.85;;;;;;;11.07;100.00;100305.75;5006276;28;20060;-79
2023/03/18 07:19:52;;;;;;;4.32;2.83;;;;;;;11.14;100.00;100309.97;5003199;28;20407;-75
2023/03/18 07:22:19;;;;;;;7.28;3.90;;;;;;;11.35;100.00;100320.97;5029919;28;20041;-79
2023/03/18 07:24:46;;;;;;;4.25;3.08;;;;;;;11.39;100.00;100317.41;5004576;28;20054;-81
2023/03/18 07:27:13;;;;;;;5.82;2.95;;;;;;;11.31;100.00;100327.19;5004856;28;20053;-77
2023/03/18 07:29:40;;;;;;;4.53;3.42;;;;;;;11.22;100.00;100338.66;4990835;28;20058;-77
2023/03/18 07:32:06;;;;;;;11.70;3.08;;;;;;;11.15;100.00;100340.53;5008362;28;20121;-76
2023/03/18 07:34:33;;;;;;;6.15;3.22;;;;;;;11.10;100.00;100337.13;5011821;28;20074;-78
2023/03/18 07:37:01;;;;;;;7.53;2.90;;;;;;;11.11;100.00;100333.63;5007999;28;20472;-75
2023/03/18 07:39:27;;;;;;;4.40;2.83;;;;;;;11.16;100.00;100337.03;5005161;28;20046;-78
2023/03/18 07:41:54;;;;;;;5.00;2.83;;;;;;;11.23;100.00;100348.25;5005193;28;20488;-79
2023/03/18 07:44:20;;;;;;;2.55;2.33;;;;;;;11.28;100.00;100346.44;5015097;28;20398;-82
2023/03/18 07:46:47;;;;;;;3.65;2.45;;;;;;;11.29;100.00;100348.16;5003830;28;20104;-76
2023/03/18 07:49:13;;;;;;;3.30;2.75;;;;;;;11.33;100.00;100359.44;5003724;28;20046;-75
2023/03/18 07:51:40;;;;;;;5.20;3.15;;;;;;;11.38;100.00;100357.59;5005859;28;20424;-76
2023/03/18 07:54:07;;;;;;;6.43;2.90;;;;;;;11.39;100.00;100356.72;5000621;28;20056;-76
2023/03/18 07:56:33;;;;;;;3.47;2.72;;;;;;;11.30;100.00;100355.13;4989166;28;20045;-76
2023/03/18 07:59:00;;;;;;;4.53;2.70;;;;;;;11.27;100.00;100359.56;5014519;28;20177;-78
2023/03/18 08:01:27;;;;;;;6.18;2.67;;;;;;;11.29;100.00;100363.00;4995728;28;20051;-78
2023/03/18 08:03:54;;;;;;;8.13;4.30;;;;;;;11.28;100.00;100364.78;4997340;28;20104;-80
2023/03/18 08:06:21;;;;;;;5.85;2.80;;;;;;;11.29;100.00;100363.00;5003672;28;20476;-78
2023/03/18 08:08:50;;;;;;;5.75;3.22;;;;;;;11.20;100.00;100359.66;4989762;28;20569;-77
2023/03/18 08:11:16;;;;;;;3.97;2.60;;;;;;;11.11;100.00;100357.19;5001954;28;20152;-81
2023/03/18 08:13:43;;;;;;;4.25;2.45;;;;;;;11.15;100.00;100361.50;5005098;28;20061;-77
2023/03/18 08:16:11;;;;;;;5.13;2.83;;;;;;;11.40;100.00;100367.19;4999261;28;20038;-76
2023/03/18 08:18:37;;;;;;;3.40;3.10;;;;;;;12.12;100.00;100361.53;5008564;28;20164;-77
2023/03/18 08:21:04;;;;;;;5.32;2.47;;;;;;;13.50;97.26;100361.06;5009850;28;20042;-78
2023/03/18 08:23:32;;;;;;;3.78;2.22;;;;;;;14.20;92.24;100365.31;5001676;28;20092;-76
2023/03/18 08:25:59;;;;;;;6.00;2.53;;;;;;;14.58;88.49;100365.13;5028807;28;20056;-76
2023/03/18 08:28:29;;;;;;;4.47;2.80;;;;;;;14.87;86.41;100372.13;4990963;28;20046;-77
2023/03/18 08:30:59;;;;;;;4.90;2.45;;;;;;;15.15;84.17;100372.13;4993854;28;20045;-77
2023/03/18 08:33:29;;;;;;;6.38;2.85;;;;;;;15.70;81.40;100371.19;5009979;28;20045;-77
2023/03/18 08:35:58;;;;;;;4.25;2.55;;;;;;;16.16;79.61;100371.34;5014863;28;20053;-77
2023/03/18 08:38:25;;;;;;;3.20;1.83;;;;;;;17.03;75.86;100369.78;5005735;28;20049;-76
2023/03/18 08:40:52;;;;;;;4.07;2.35;;;;;;;17.22;74.11;100366.38;5015309;28;20060;-77
2023/03/18 08:43:20;;;;;;;4.40;2.13;;;;;;;17.14;74.59;100372.00;4999194;28;20053;-76
2023/03/18 08:45:54;;;;;;;2.22;2.03;;;;;;;16.93;74.50;100373.72;4994547;28;20155;-75
2023/03/18 08:48:22;;;;;;;5.57;2.47;;;;;;;16.12;77.03;100375.88;4998107;28;20046;-81
2023/03/18 08:50:48;;;;;;;2.25;1.80;;;;;;;16.53;77.30;100375.22;5008456;28;20132;-76
2023/03/18 08:53:16;;;;;;;3.92;2.00;;;;;;;17.28;73.18;100381.16;4992319;28;20045;-78
2023/03/18 08:55:43;;;;;;;1.80;1.50;;;;;;;17.89;71.44;100375.03;5007219;28;20072;-77
2023/03/18 08:58:10;;;;;;;5.50;2.10;;;;;;;18.76;67.84;100369.34;5007568;28;20054;-77
2023/03/18 09:00:40;;;;;;;4.55;2.10;;;;;;;19.36;66.16;100377.97;5007865;28;20053;-77
2023/03/18 09:03:07;;;;;;;4.53;2.35;;;;;;;19.33;64.34;100376.34;5017804;28;20116;-77
2023/03/18 09:05:36;;;;;;;2.80;2.05;;;;;;;19.43;64.37;100382.91;5011137;28;20053;-83
2023/03/18 09:08:04;;;;;;;2.03;1.63;;;;;;;19.65;63.22;100387.13;5007209;28;20034;-75
2023/03/18 09:10:33;;;;;;;4.82;2.25;;;;;;;20.21;62.18;100376.28;5015647;28;20040;-75
2023/03/18 09:12:59;;;;;;;2.85;2.28;;;;;;;21.13;59.59;100375.66;5007759;28;20058;-79
2023/03/18 09:15:26;;;;;;;2.80;1.63;;;;;;;21.47;57.29;100376.34;5009298;28;20530;-76
2023/03/18 09:17:53;;;;;;;2.25;1.80;;;;;;;20.97;56.12;100373.03;5010769;28;20119;-75
2023/03/18 09:20:20;;;;;;;3.10;2.13;;;;;;;19.76;58.94;100382.13;5013211;28;20095;-78
2023/03/18 09:22:49;;;;;;;4.32;2.10;;;;;;;18.65;63.65;100393.69;5006434;28;20056;-77
2023/03/18 09:25:16;;;;;;;3.40;1.90;;;;;;;17.75;65.89;100396.81;5012476;28;20057;-78
2023/03/18 09:27:44;;;;;;;4.60;2.15;;;;;;;16.95;68.69;100393.03;5012076;28;20511;-75
2023/03/18 09:30:12;;;;;;;5.88;2.63;;;;;;;16.13;71.62;100409.28;5014128;28;20045;-77
2023/03/18 09:32:39;;;;;;;4.13;2.20;;;;;;;15.61;74.15;100405.81;5013400;28;20052;-76
2023/03/18 09:35:08;;;;;;;2.47;2.22;;;;;;;15.30;75.53;100405.03;5032368;28;20041;-77
2023/03/18 09:37:35;;;;;;;6.80;3.20;;;;;;;15.20;76.56;100403.59;5032242;28;20041;-77
2023/03/18 09:40:03;;;;;;;5.18;2.08;;;;;;;15.09;76.91;100411.00;5015103;28;20038;-76
2023/03/18 09:43:14;;;;;;;4.75;3.08;;;;;;;15.06;76.61;100398.78;5031127;28;20107;-78
2023/03/18 09:45:55;;;;;;;6.30;4.13;;;;;;;14.95;76.21;100407.00;5015045;28;20069;-77
2023/03/18 09:49:00;;;;;;;3.15;2.83;;;;;;;15.05;75.96;100411.09;4996280;28;20048;-80
2023/03/18 09:51:40;;;;;;;4.53;2.78;;;;;;;15.59;74.02;100404.97;5009615;28;20045;-80
2023/03/18 09:54:16;;;;;;;3.15;2.70;;;;;;;17.53;66.99;100403.03;5009908;28;20057;-82
2023/03/18 09:56:45;;;;;;;4.10;2.95;;;;;;;19.73;59.48;100405.34;4998423;28;20060;-79
2023/03/18 09:59:29;;;;;;;7.45;2.70;;;;;;;20.17;53.29;100410.16;4992718;28;20503;-78
2023/03/18 10:01:57;;;;;;;2.30;2.10;;;;;;;20.29;54.00;100408.66;5002497;28;20033;-77
2023/03/18 10:04:56;;;;;;;4.18;2.38;;;;;;;20.94;53.13;100403.34;5007259;28;20045;-79
2023/03/18 10:07:31;;;;;;;3.17;2.40;;;;;;;20.94;51.43;100402.50;5029812;28;20037;-81
2023/03/18 10:10:10;;;;;;;4.32;2.42;;;;;;;20.84;51.49;100390.66;5013136;28;20475;-78
2023/03/18 10:12:44;;;;;;;5.68;2.60;;;;;;;20.42;53.26;100408.84;5013881;28;20064;-77
2023/03/18 10:15:28;;;;;;;3.92;2.13;;;;;;;21.09;50.96;100412.28;5012746;28;20049;-76
2023/03/18 10:18:10;;;;;;;3.65;1.90;;;;;;;21.64;50.68;100424.22;5012485;28;20053;-79
2023/03/18 10:21:20;;;;;;;2.30;1.92;;;;;;;21.17;51.08;100426.94;5011219;28;20049;-75
2023/03/18 10:24:24;;;;;;;3.05;2.30;;;;;;;21.89;49.39;100421.88;5006801;28;20470;-75
2023/03/18 10:27:45;;;;;;;4.88;3.22;;;;;;;21.83;47.72;100423.09;5031759;28;20045;-77
2023/03/18 10:30:33;;;;;;;3.05;2.75;;;;;;;22.53;45.27;100421.56;5030087;28;20045;-79
2023/03/18 10:33:22;;;;;;;2.65;2.13;;;;;;;23.04;44.24;100418.34;5013761;28;20064;-76
2023/03/18 10:36:03;;;;;;;2.85;2.33;;;;;;;22.68;44.14;100411.75;5028611;28;20049;-77
2023/03/18 10:38:36;;;;;;;2.47;2.00;;;;;;;21.97;46.68;100430.28;5007445;28;20044;-77
2023/03/18 10:41:16;;;;;;;4.78;1.90;;;;;;;21.09;48.13;100436.22;5005117;28;20041;-76
2023/03/18 10:43:48;;;;;;;2.25;1.65;;;;;;;20.58;49.73;100427.47;5013769;28;20051;-78
2023/03/18 10:46:16;;;;;;;2.60;2.23;;;;;;;20.49;50.18;100434.16;5010439;28;20061;-78
2023/03/18 10:48:52;;;;;;;3.25;2.45;;;;;;;20.35;49.84;100432.25;5003910;28;20050;-78
2023/03/18 10:51:31;;;;;;;2.10;1.98;;;;;;;19.70;51.28;100443.53;5030291;28;20128;-83
2023/03/18 10:54:31;;;;;;;2.80;2.00;;;;;;;18.56;54.68;100428.59;5009072;28;20424;-78
2023/03/18 10:56:57;;;;;;;4.47;2.38;;;;;;;18.82;53.39;100435.31;4998244;28;20057;-79
2023/03/18 10:59:26;;;;;;;3.08;2.08;;;;;;;18.57;54.27;100432.13;4995129;28;20038;-75
2023/03/18 11:02:14;;;;;;;4.55;2.05;;;;;;;17.67;56.65;100444.78;4983524;28;20789;-77
2023/03/18 11:05:04;;;;;;;4.18;2.53;;;;;;;17.00;59.60;100449.25;5018541;28;20049;-76
2023/03/18 11:07:34;;;;;;;2.25;2.05;;;;;;;16.63;60.57;100447.09;5012158;28;20038;-77
2023/03/18 11:10:24;;;;;;;4.47;2.63;;;;;;;16.33;62.17;100450.81;5012808;28;20079;-77
2023/03/18 11:12:50;;;;;;;4.93;2.63;;;;;;;16.19;62.63;100445.16;4993017;28;20372;-79
2023/03/18 11:15:20;;;;;;;4.35;3.05;;;;;;;15.98;64.09;100445.03;5012245;28;20581;-78
2023/03/18 11:17:50;;;;;;;3.78;2.78;;;;;;;15.93;64.37;100438.16;5009949;28;21343;-77
2023/03/18 11:20:32;;;;;;;6.45;2.72;;;;;;;16.02;63.87;100435.19;5012591;28;20042;-79
2023/03/18 11:23:11;;;;;;;2.67;2.15;;;;;;;16.28;63.37;100441.34;4990422;28;20377;-82
2023/03/18 11:25:48;;;;;;;5.60;2.80;;;;;;;17.74;58.46;100436.59;4993142;28;20053;-82
2023/03/18 11:28:25;;;;;;;2.22;1.92;;;;;;;19.29;54.38;100435.81;5014183;28;20045;-87
2023/03/18 11:31:05;;;;;;;5.00;2.22;;;;;;;21.22;49.46;100440.84;4992526;28;20680;-84
2023/03/18 11:33:33;;;;;;;2.45;2.25;;;;;;;22.25;45.30;100437.47;5007706;28;20482;-77
2023/03/18 11:36:07;;;;;;;2.00;1.80;;;;;;;22.83;44.90;100434.78;4996211;28;20160;-80
2023/03/18 11:38:35;;;;;;;;;;;;;;;23.00;42.70;100430.16;5007794;28;20045;-78
2023/03/18 11:41:24;;;;;;;2.55;1.92;;;;;;;22.00;44.04;100438.06;5012079;28;19925;-78
2023/03/18 11:44:07;;;;;;;2.30;2.08;;;;;;;21.74;45.88;100443.16;5029501;28;20049;-76
2023/03/18 11:46:50;;;;;;;2.67;1.63;;;;;;;22.36;44.32;100435.94;5010278;28;20690;-75